sensor_id;sensor_type;location;lat;lon;timestamp;P1;durP1;ratioP1;P2;durP2;ratioP2
64842;SDS011;51310;52.198;5.422;2024-02-15T00:00:15;24.08;;;7.72;;
64842;SDS011;51310;52.198;5.422;2024-02-15T00:02:44;35.22;;;8.43;;
64842;SDS011;51310;52.198;5.422;2024-02-15T00:05:10;19.50;;;7.50;;
64842;SDS011;51310;52.198;5.422;2024-02-15T00:07:39;18.30;;;7.85;;
64842;SDS011;51310;52.198;5.422;2024-02-15T00:10:05;23.88;;;7.65;;
64842;SDS011;51310;52.198;5.422;2024-02-15T00:12:33;19.65;;;7.72;;
64842;SDS011;51310;52.198;5.422;2024-02-15T00:15:00;32.63;;;8.30;;
64842;SDS011;51310;52.198;5.422;2024-02-15T00:17:27;14.52;;;7.75;;
64842;SDS011;51310;52.198;5.422;2024-02-15T00:19:56;19.90;;;8.68;;
64842;SDS011;51310;52.198;5.422;2024-02-15T00:22:21;17.92;;;7.35;;
64842;SDS011;51310;52.198;5.422;2024-02-15T00:24:47;18.13;;;6.97;;
64842;SDS011;51310;52.198;5.422;2024-02-15T00:27:16;19.15;;;8.05;;
64842;SDS011;51310;52.198;5.422;2024-02-15T00:29:42;13.32;;;7.68;;
64842;SDS011;51310;52.198;5.422;2024-02-15T00:32:08;15.95;;;7.22;;
64842;SDS011;51310;52.198;5.422;2024-02-15T00:34:37;21.60;;;8.20;;
64842;SDS011;51310;52.198;5.422;2024-02-15T00:37:04;17.65;;;7.47;;
64842;SDS011;51310;52.198;5.422;2024-02-15T00:39:30;24.40;;;8.05;;
64842;SDS011;51310;52.198;5.422;2024-02-15T00:41:57;20.02;;;6.95;;
64842;SDS011;51310;52.198;5.422;2024-02-15T00:44:25;23.63;;;7.97;;
64842;SDS011;51310;52.198;5.422;2024-02-15T00:46:52;20.08;;;7.60;;
64842;SDS011;51310;52.198;5.422;2024-02-15T00:49:18;21.15;;;6.82;;
64842;SDS011;51310;52.198;5.422;2024-02-15T00:51:47;15.23;;;7.57;;
64842;SDS011;51310;52.198;5.422;2024-02-15T00:54:13;21.73;;;8.00;;
64842;SDS011;51310;52.198;5.422;2024-02-15T00:56:41;18.75;;;8.02;;
64842;SDS011;51310;52.198;5.422;2024-02-15T00:59:07;21.58;;;7.50;;
64842;SDS011;51310;52.198;5.422;2024-02-15T01:01:32;20.45;;;7.57;;
64842;SDS011;51310;52.198;5.422;2024-02-15T01:03:58;21.52;;;8.02;;
64842;SDS011;51310;52.198;5.422;2024-02-15T01:06:24;23.52;;;7.55;;
64842;SDS011;51310;52.198;5.422;2024-02-15T01:08:50;16.85;;;6.78;;
64842;SDS011;51310;52.198;5.422;2024-02-15T01:11:16;25.25;;;7.45;;
64842;SDS011;51310;52.198;5.422;2024-02-15T01:13:42;17.25;;;7.60;;
64842;SDS011;51310;52.198;5.422;2024-02-15T01:16:09;21.80;;;8.10;;
64842;SDS011;51310;52.198;5.422;2024-02-15T01:18:35;19.48;;;8.05;;
64842;SDS011;51310;52.198;5.422;2024-02-15T01:21:01;20.58;;;7.38;;
64842;SDS011;51310;52.198;5.422;2024-02-15T01:23:27;20.45;;;8.02;;
64842;SDS011;51310;52.198;5.422;2024-02-15T01:25:54;15.25;;;7.30;;
64842;SDS011;51310;52.198;5.422;2024-02-15T01:28:19;20.38;;;7.85;;
64842;SDS011;51310;52.198;5.422;2024-02-15T01:30:47;25.42;;;7.70;;
64842;SDS011;51310;52.198;5.422;2024-02-15T01:33:12;21.23;;;7.95;;
64842;SDS011;51310;52.198;5.422;2024-02-15T01:35:38;16.92;;;7.90;;
64842;SDS011;51310;52.198;5.422;2024-02-15T01:38:07;20.33;;;9.50;;
64842;SDS011;51310;52.198;5.422;2024-02-15T01:40:33;23.23;;;9.45;;
64842;SDS011;51310;52.198;5.422;2024-02-15T01:43:00;20.25;;;9.73;;
64842;SDS011;51310;52.198;5.422;2024-02-15T01:45:26;19.60;;;10.07;;
64842;SDS011;51310;52.198;5.422;2024-02-15T01:47:53;22.40;;;9.95;;
64842;SDS011;51310;52.198;5.422;2024-02-15T01:50:19;21.63;;;11.07;;
64842;SDS011;51310;52.198;5.422;2024-02-15T01:52:47;23.48;;;11.52;;
64842;SDS011;51310;52.198;5.422;2024-02-15T01:55:17;22.45;;;11.88;;
64842;SDS011;51310;52.198;5.422;2024-02-15T01:57:46;30.42;;;13.60;;
64842;SDS011;51310;52.198;5.422;2024-02-15T02:00:18;24.90;;;12.27;;
64842;SDS011;51310;52.198;5.422;2024-02-15T02:02:44;31.58;;;13.60;;
64842;SDS011;51310;52.198;5.422;2024-02-15T02:05:12;27.00;;;13.05;;
64842;SDS011;51310;52.198;5.422;2024-02-15T02:07:38;26.38;;;14.10;;
64842;SDS011;51310;52.198;5.422;2024-02-15T02:10:04;31.00;;;13.75;;
64842;SDS011;51310;52.198;5.422;2024-02-15T02:12:32;25.92;;;14.45;;
64842;SDS011;51310;52.198;5.422;2024-02-15T02:14:58;24.55;;;14.82;;
64842;SDS011;51310;52.198;5.422;2024-02-15T02:17:24;19.30;;;13.02;;
64842;SDS011;51310;52.198;5.422;2024-02-15T02:19:50;28.38;;;14.18;;
64842;SDS011;51310;52.198;5.422;2024-02-15T02:22:16;24.90;;;12.93;;
64842;SDS011;51310;52.198;5.422;2024-02-15T02:25:05;22.83;;;14.27;;
64842;SDS011;51310;52.198;5.422;2024-02-15T02:27:34;29.88;;;13.77;;
64842;SDS011;51310;52.198;5.422;2024-02-15T02:30:02;28.30;;;14.18;;
64842;SDS011;51310;52.198;5.422;2024-02-15T02:32:46;37.83;;;14.35;;
64842;SDS011;51310;52.198;5.422;2024-02-15T02:35:14;33.78;;;14.35;;
64842;SDS011;51310;52.198;5.422;2024-02-15T02:37:41;29.52;;;13.52;;
64842;SDS011;51310;52.198;5.422;2024-02-15T02:40:07;36.15;;;14.55;;
64842;SDS011;51310;52.198;5.422;2024-02-15T02:45:18;26.83;;;13.95;;
64842;SDS011;51310;52.198;5.422;2024-02-15T02:47:47;28.42;;;11.75;;
64842;SDS011;51310;52.198;5.422;2024-02-15T02:50:17;26.35;;;14.00;;
64842;SDS011;51310;52.198;5.422;2024-02-15T02:52:47;26.60;;;12.27;;
64842;SDS011;51310;52.198;5.422;2024-02-15T02:55:14;26.95;;;13.40;;
64842;SDS011;51310;52.198;5.422;2024-02-15T02:57:41;23.17;;;12.20;;
64842;SDS011;51310;52.198;5.422;2024-02-15T03:00:07;30.55;;;13.05;;
64842;SDS011;51310;52.198;5.422;2024-02-15T03:02:41;21.23;;;11.48;;
64842;SDS011;51310;52.198;5.422;2024-02-15T03:05:09;32.70;;;12.93;;
64842;SDS011;51310;52.198;5.422;2024-02-15T03:07:39;23.35;;;11.38;;
64842;SDS011;51310;52.198;5.422;2024-02-15T03:10:09;18.42;;;10.77;;
64842;SDS011;51310;52.198;5.422;2024-02-15T03:12:38;33.05;;;11.90;;
64842;SDS011;51310;52.198;5.422;2024-02-15T03:15:05;29.63;;;13.48;;
64842;SDS011;51310;52.198;5.422;2024-02-15T03:17:40;25.97;;;10.90;;
64842;SDS011;51310;52.198;5.422;2024-02-15T03:20:09;23.60;;;10.88;;
64842;SDS011;51310;52.198;5.422;2024-02-15T03:22:45;19.95;;;10.43;;
64842;SDS011;51310;52.198;5.422;2024-02-15T03:25:23;21.23;;;10.70;;
64842;SDS011;51310;52.198;5.422;2024-02-15T03:27:50;19.88;;;10.38;;
64842;SDS011;51310;52.198;5.422;2024-02-15T03:30:18;24.40;;;11.23;;
64842;SDS011;51310;52.198;5.422;2024-02-15T03:32:46;25.88;;;11.13;;
64842;SDS011;51310;52.198;5.422;2024-02-15T03:35:13;23.50;;;10.25;;
64842;SDS011;51310;52.198;5.422;2024-02-15T03:37:42;24.02;;;10.88;;
64842;SDS011;51310;52.198;5.422;2024-02-15T03:40:09;44.53;;;12.02;;
64842;SDS011;51310;52.198;5.422;2024-02-15T03:42:35;20.85;;;9.93;;
64842;SDS011;51310;52.198;5.422;2024-02-15T03:45:04;29.40;;;9.73;;
64842;SDS011;51310;52.198;5.422;2024-02-15T03:47:34;28.55;;;10.18;;
64842;SDS011;51310;52.198;5.422;2024-02-15T03:50:01;18.38;;;9.88;;
64842;SDS011;51310;52.198;5.422;2024-02-15T03:52:28;16.90;;;9.35;;
64842;SDS011;51310;52.198;5.422;2024-02-15T03:54:56;21.17;;;9.95;;
64842;SDS011;51310;52.198;5.422;2024-02-15T03:57:23;18.45;;;9.32;;
64842;SDS011;51310;52.198;5.422;2024-02-15T03:59:49;25.85;;;8.63;;
64842;SDS011;51310;52.198;5.422;2024-02-15T04:02:17;19.38;;;8.88;;
64842;SDS011;51310;52.198;5.422;2024-02-15T04:04:44;24.63;;;9.38;;
64842;SDS011;51310;52.198;5.422;2024-02-15T04:07:13;19.65;;;8.57;;
64842;SDS011;51310;52.198;5.422;2024-02-15T04:09:39;24.20;;;8.02;;
64842;SDS011;51310;52.198;5.422;2024-02-15T04:12:05;22.35;;;8.77;;
64842;SDS011;51310;52.198;5.422;2024-02-15T04:14:32;14.88;;;8.23;;
64842;SDS011;51310;52.198;5.422;2024-02-15T04:16:59;32.50;;;9.02;;
64842;SDS011;51310;52.198;5.422;2024-02-15T04:19:27;19.13;;;8.40;;
64842;SDS011;51310;52.198;5.422;2024-02-15T04:21:53;20.60;;;7.43;;
64842;SDS011;51310;52.198;5.422;2024-02-15T04:24:20;22.17;;;9.00;;
64842;SDS011;51310;52.198;5.422;2024-02-15T04:26:50;29.25;;;9.15;;
64842;SDS011;51310;52.198;5.422;2024-02-15T04:29:16;27.75;;;8.45;;
64842;SDS011;51310;52.198;5.422;2024-02-15T04:31:45;20.33;;;7.88;;
64842;SDS011;51310;52.198;5.422;2024-02-15T04:34:15;24.95;;;9.80;;
64842;SDS011;51310;52.198;5.422;2024-02-15T04:36:46;21.35;;;8.65;;
64842;SDS011;51310;52.198;5.422;2024-02-15T04:39:20;14.15;;;8.35;;
64842;SDS011;51310;52.198;5.422;2024-02-15T04:41:55;18.27;;;9.32;;
64842;SDS011;51310;52.198;5.422;2024-02-15T04:44:21;21.27;;;7.67;;
64842;SDS011;51310;52.198;5.422;2024-02-15T04:46:51;20.42;;;7.53;;
64842;SDS011;51310;52.198;5.422;2024-02-15T04:49:18;30.42;;;9.07;;
64842;SDS011;51310;52.198;5.422;2024-02-15T04:51:45;17.95;;;7.75;;
64842;SDS011;51310;52.198;5.422;2024-02-15T04:54:12;17.30;;;7.53;;
64842;SDS011;51310;52.198;5.422;2024-02-15T04:56:39;29.42;;;8.85;;
64842;SDS011;51310;52.198;5.422;2024-02-15T04:59:06;22.23;;;7.85;;
64842;SDS011;51310;52.198;5.422;2024-02-15T05:01:36;24.05;;;8.40;;
64842;SDS011;51310;52.198;5.422;2024-02-15T05:04:02;24.98;;;9.10;;
64842;SDS011;51310;52.198;5.422;2024-02-15T05:06:32;25.98;;;8.93;;
64842;SDS011;51310;52.198;5.422;2024-02-15T05:08:58;27.23;;;8.45;;
64842;SDS011;51310;52.198;5.422;2024-02-15T05:11:25;17.15;;;8.00;;
64842;SDS011;51310;52.198;5.422;2024-02-15T05:13:51;21.98;;;9.57;;
64842;SDS011;51310;52.198;5.422;2024-02-15T05:16:17;20.13;;;8.85;;
64842;SDS011;51310;52.198;5.422;2024-02-15T05:18:43;18.92;;;8.60;;
64842;SDS011;51310;52.198;5.422;2024-02-15T05:21:10;25.50;;;8.90;;
64842;SDS011;51310;52.198;5.422;2024-02-15T05:23:38;19.67;;;9.45;;
64842;SDS011;51310;52.198;5.422;2024-02-15T05:26:04;21.20;;;7.90;;
64842;SDS011;51310;52.198;5.422;2024-02-15T05:28:32;20.08;;;8.80;;
64842;SDS011;51310;52.198;5.422;2024-02-15T05:31:14;25.27;;;8.98;;
64842;SDS011;51310;52.198;5.422;2024-02-15T05:33:52;25.38;;;9.35;;
64842;SDS011;51310;52.198;5.422;2024-02-15T05:36:19;20.13;;;10.23;;
64842;SDS011;51310;52.198;5.422;2024-02-15T05:38:49;25.40;;;10.80;;
64842;SDS011;51310;52.198;5.422;2024-02-15T05:41:18;21.27;;;9.93;;
64842;SDS011;51310;52.198;5.422;2024-02-15T05:43:46;22.13;;;9.43;;
64842;SDS011;51310;52.198;5.422;2024-02-15T05:46:19;18.70;;;10.38;;
64842;SDS011;51310;52.198;5.422;2024-02-15T05:48:48;18.92;;;9.80;;
64842;SDS011;51310;52.198;5.422;2024-02-15T05:51:16;26.10;;;10.45;;
64842;SDS011;51310;52.198;5.422;2024-02-15T05:53:42;23.88;;;12.25;;
64842;SDS011;51310;52.198;5.422;2024-02-15T05:56:09;19.27;;;10.32;;
64842;SDS011;51310;52.198;5.422;2024-02-15T05:58:35;18.23;;;9.10;;
64842;SDS011;51310;52.198;5.422;2024-02-15T06:01:02;16.10;;;9.50;;
64842;SDS011;51310;52.198;5.422;2024-02-15T06:03:33;19.90;;;8.60;;
64842;SDS011;51310;52.198;5.422;2024-02-15T06:06:02;19.13;;;10.23;;
64842;SDS011;51310;52.198;5.422;2024-02-15T06:08:33;18.05;;;9.75;;
64842;SDS011;51310;52.198;5.422;2024-02-15T06:11:00;22.77;;;10.18;;
64842;SDS011;51310;52.198;5.422;2024-02-15T06:13:27;15.98;;;9.43;;
64842;SDS011;51310;52.198;5.422;2024-02-15T06:15:53;19.52;;;9.38;;
64842;SDS011;51310;52.198;5.422;2024-02-15T06:18:20;17.88;;;9.50;;
64842;SDS011;51310;52.198;5.422;2024-02-15T06:20:49;16.05;;;8.98;;
64842;SDS011;51310;52.198;5.422;2024-02-15T06:23:19;19.23;;;9.65;;
64842;SDS011;51310;52.198;5.422;2024-02-15T06:25:46;20.42;;;10.13;;
64842;SDS011;51310;52.198;5.422;2024-02-15T06:28:15;14.52;;;9.57;;
64842;SDS011;51310;52.198;5.422;2024-02-15T06:31:08;19.75;;;9.38;;
64842;SDS011;51310;52.198;5.422;2024-02-15T06:33:55;20.85;;;9.30;;
64842;SDS011;51310;52.198;5.422;2024-02-15T06:36:40;15.90;;;8.38;;
64842;SDS011;51310;52.198;5.422;2024-02-15T06:39:36;14.80;;;9.38;;
64842;SDS011;51310;52.198;5.422;2024-02-15T06:42:03;19.30;;;10.07;;
64842;SDS011;51310;52.198;5.422;2024-02-15T06:44:29;16.23;;;8.63;;
64842;SDS011;51310;52.198;5.422;2024-02-15T06:46:55;23.23;;;9.98;;
64842;SDS011;51310;52.198;5.422;2024-02-15T06:49:22;22.65;;;10.05;;
64842;SDS011;51310;52.198;5.422;2024-02-15T06:51:50;21.45;;;11.07;;
64842;SDS011;51310;52.198;5.422;2024-02-15T06:54:17;16.38;;;10.77;;
64842;SDS011;51310;52.198;5.422;2024-02-15T06:56:45;18.38;;;11.55;;
64842;SDS011;51310;52.198;5.422;2024-02-15T06:59:12;18.05;;;10.27;;
64842;SDS011;51310;52.198;5.422;2024-02-15T07:01:40;19.20;;;12.07;;
64842;SDS011;51310;52.198;5.422;2024-02-15T07:04:07;24.25;;;12.00;;
64842;SDS011;51310;52.198;5.422;2024-02-15T07:06:37;16.95;;;10.18;;
64842;SDS011;51310;52.198;5.422;2024-02-15T07:09:04;18.20;;;10.80;;
64842;SDS011;51310;52.198;5.422;2024-02-15T07:11:32;19.73;;;11.20;;
64842;SDS011;51310;52.198;5.422;2024-02-15T07:13:59;20.23;;;11.07;;
64842;SDS011;51310;52.198;5.422;2024-02-15T07:16:26;17.90;;;10.80;;
64842;SDS011;51310;52.198;5.422;2024-02-15T07:18:52;17.75;;;11.50;;
64842;SDS011;51310;52.198;5.422;2024-02-15T07:21:21;17.95;;;10.95;;
64842;SDS011;51310;52.198;5.422;2024-02-15T07:23:55;18.85;;;12.00;;
64842;SDS011;51310;52.198;5.422;2024-02-15T07:26:22;16.13;;;10.82;;
64842;SDS011;51310;52.198;5.422;2024-02-15T07:28:58;19.33;;;11.52;;
64842;SDS011;51310;52.198;5.422;2024-02-15T07:31:28;22.65;;;11.38;;
64842;SDS011;51310;52.198;5.422;2024-02-15T07:33:54;18.35;;;11.50;;
64842;SDS011;51310;52.198;5.422;2024-02-15T07:36:20;17.45;;;11.00;;
64842;SDS011;51310;52.198;5.422;2024-02-15T07:38:48;19.50;;;10.35;;
64842;SDS011;51310;52.198;5.422;2024-02-15T07:41:19;19.20;;;10.93;;
64842;SDS011;51310;52.198;5.422;2024-02-15T07:43:47;17.10;;;10.15;;
64842;SDS011;51310;52.198;5.422;2024-02-15T07:46:15;22.20;;;9.50;;
64842;SDS011;51310;52.198;5.422;2024-02-15T07:48:42;20.50;;;11.15;;
64842;SDS011;51310;52.198;5.422;2024-02-15T07:51:21;15.18;;;8.52;;
64842;SDS011;51310;52.198;5.422;2024-02-15T07:53:48;19.00;;;8.82;;
64842;SDS011;51310;52.198;5.422;2024-02-15T07:56:16;13.02;;;8.52;;
64842;SDS011;51310;52.198;5.422;2024-02-15T07:58:43;12.95;;;8.38;;
64842;SDS011;51310;52.198;5.422;2024-02-15T08:01:13;14.82;;;8.10;;
64842;SDS011;51310;52.198;5.422;2024-02-15T08:03:40;11.43;;;8.18;;
64842;SDS011;51310;52.198;5.422;2024-02-15T08:06:12;9.73;;;6.75;;
64842;SDS011;51310;52.198;5.422;2024-02-15T08:08:43;10.40;;;6.65;;
64842;SDS011;51310;52.198;5.422;2024-02-15T08:11:12;7.25;;;5.20;;
64842;SDS011;51310;52.198;5.422;2024-02-15T08:13:46;9.45;;;6.13;;
64842;SDS011;51310;52.198;5.422;2024-02-15T08:16:19;9.25;;;5.60;;
64842;SDS011;51310;52.198;5.422;2024-02-15T08:18:48;9.15;;;5.35;;
64842;SDS011;51310;52.198;5.422;2024-02-15T08:21:18;11.40;;;5.32;;
64842;SDS011;51310;52.198;5.422;2024-02-15T08:23:51;7.50;;;4.90;;
64842;SDS011;51310;52.198;5.422;2024-02-15T08:26:17;6.45;;;4.60;;
64842;SDS011;51310;52.198;5.422;2024-02-15T08:28:43;8.38;;;4.88;;
64842;SDS011;51310;52.198;5.422;2024-02-15T08:31:08;8.60;;;4.15;;
64842;SDS011;51310;52.198;5.422;2024-02-15T08:33:36;6.60;;;4.22;;
64842;SDS011;51310;52.198;5.422;2024-02-15T08:36:03;8.50;;;4.22;;
64842;SDS011;51310;52.198;5.422;2024-02-15T08:38:30;5.43;;;3.67;;
64842;SDS011;51310;52.198;5.422;2024-02-15T08:40:56;6.95;;;4.07;;
64842;SDS011;51310;52.198;5.422;2024-02-15T08:43:22;5.00;;;4.00;;
64842;SDS011;51310;52.198;5.422;2024-02-15T08:45:48;5.25;;;3.20;;
64842;SDS011;51310;52.198;5.422;2024-02-15T08:48:15;4.88;;;2.80;;
64842;SDS011;51310;52.198;5.422;2024-02-15T08:50:42;9.23;;;3.08;;
64842;SDS011;51310;52.198;5.422;2024-02-15T08:53:10;6.90;;;3.00;;
64842;SDS011;51310;52.198;5.422;2024-02-15T08:55:36;6.75;;;2.83;;
64842;SDS011;51310;52.198;5.422;2024-02-15T08:58:02;4.90;;;2.75;;
64842;SDS011;51310;52.198;5.422;2024-02-15T09:00:29;3.40;;;2.50;;
64842;SDS011;51310;52.198;5.422;2024-02-15T09:02:55;4.15;;;2.67;;
64842;SDS011;51310;52.198;5.422;2024-02-15T09:05:22;4.22;;;2.58;;
64842;SDS011;51310;52.198;5.422;2024-02-15T09:07:48;4.05;;;2.38;;
64842;SDS011;51310;52.198;5.422;2024-02-15T09:10:15;3.10;;;2.28;;
64842;SDS011;51310;52.198;5.422;2024-02-15T09:12:43;3.55;;;2.28;;
64842;SDS011;51310;52.198;5.422;2024-02-15T09:15:14;4.60;;;2.85;;
64842;SDS011;51310;52.198;5.422;2024-02-15T09:17:41;5.10;;;2.75;;
64842;SDS011;51310;52.198;5.422;2024-02-15T09:20:09;4.32;;;2.60;;
64842;SDS011;51310;52.198;5.422;2024-02-15T09:22:43;5.35;;;2.65;;
64842;SDS011;51310;52.198;5.422;2024-02-15T09:25:17;4.20;;;2.67;;
64842;SDS011;51310;52.198;5.422;2024-02-15T09:27:44;4.30;;;2.25;;
64842;SDS011;51310;52.198;5.422;2024-02-15T09:30:11;8.32;;;2.70;;
64842;SDS011;51310;52.198;5.422;2024-02-15T09:32:38;4.63;;;2.72;;
64842;SDS011;51310;52.198;5.422;2024-02-15T09:35:05;11.25;;;3.88;;
64842;SDS011;51310;52.198;5.422;2024-02-15T09:37:33;5.65;;;2.53;;
64842;SDS011;51310;52.198;5.422;2024-02-15T09:40:09;5.55;;;3.13;;
64842;SDS011;51310;52.198;5.422;2024-02-15T09:42:37;5.95;;;3.17;;
64842;SDS011;51310;52.198;5.422;2024-02-15T09:45:05;10.20;;;4.28;;
64842;SDS011;51310;52.198;5.422;2024-02-15T09:47:36;6.72;;;3.75;;
64842;SDS011;51310;52.198;5.422;2024-02-15T09:50:06;12.30;;;3.58;;
64842;SDS011;51310;52.198;5.422;2024-02-15T09:52:36;8.57;;;3.85;;
64842;SDS011;51310;52.198;5.422;2024-02-15T09:55:06;7.10;;;3.08;;
64842;SDS011;51310;52.198;5.422;2024-02-15T09:57:39;13.98;;;4.75;;
64842;SDS011;51310;52.198;5.422;2024-02-15T10:00:10;9.68;;;3.97;;
64842;SDS011;51310;52.198;5.422;2024-02-15T10:02:42;8.75;;;3.90;;
64842;SDS011;51310;52.198;5.422;2024-02-15T10:05:12;13.18;;;3.83;;
64842;SDS011;51310;52.198;5.422;2024-02-15T10:07:39;14.02;;;3.95;;
64842;SDS011;51310;52.198;5.422;2024-02-15T10:10:13;10.38;;;4.90;;
64842;SDS011;51310;52.198;5.422;2024-02-15T10:12:45;15.27;;;4.40;;
64842;SDS011;51310;52.198;5.422;2024-02-15T10:18:02;8.10;;;4.30;;
64842;SDS011;51310;52.198;5.422;2024-02-15T10:20:33;10.35;;;4.60;;
64842;SDS011;51310;52.198;5.422;2024-02-15T10:25:33;11.95;;;5.43;;
64842;SDS011;51310;52.198;5.422;2024-02-15T10:28:03;11.40;;;6.20;;
64842;SDS011;51310;52.198;5.422;2024-02-15T10:30:38;14.10;;;5.20;;
64842;SDS011;51310;52.198;5.422;2024-02-15T10:33:10;10.27;;;5.97;;
64842;SDS011;51310;52.198;5.422;2024-02-15T10:36:06;11.65;;;4.80;;
64842;SDS011;51310;52.198;5.422;2024-02-15T10:38:34;12.80;;;5.93;;
64842;SDS011;51310;52.198;5.422;2024-02-15T10:41:03;14.13;;;5.55;;
64842;SDS011;51310;52.198;5.422;2024-02-15T10:43:33;10.43;;;5.10;;
64842;SDS011;51310;52.198;5.422;2024-02-15T10:46:02;14.35;;;5.85;;
64842;SDS011;51310;52.198;5.422;2024-02-15T10:48:29;10.82;;;5.10;;
64842;SDS011;51310;52.198;5.422;2024-02-15T10:51:02;13.50;;;5.75;;
64842;SDS011;51310;52.198;5.422;2024-02-15T10:53:35;15.40;;;5.30;;
64842;SDS011;51310;52.198;5.422;2024-02-15T10:56:12;16.25;;;5.05;;
64842;SDS011;51310;52.198;5.422;2024-02-15T10:58:50;13.75;;;6.18;;
64842;SDS011;51310;52.198;5.422;2024-02-15T11:01:41;11.25;;;6.38;;
64842;SDS011;51310;52.198;5.422;2024-02-15T11:04:11;9.65;;;5.72;;
64842;SDS011;51310;52.198;5.422;2024-02-15T11:06:41;11.55;;;5.22;;
64842;SDS011;51310;52.198;5.422;2024-02-15T11:09:09;9.60;;;5.22;;
64842;SDS011;51310;52.198;5.422;2024-02-15T11:11:39;10.85;;;4.78;;
64842;SDS011;51310;52.198;5.422;2024-02-15T11:14:22;12.88;;;4.47;;
64842;SDS011;51310;52.198;5.422;2024-02-15T11:16:50;12.50;;;4.28;;
64842;SDS011;51310;52.198;5.422;2024-02-15T11:19:58;11.73;;;4.93;;
64842;SDS011;51310;52.198;5.422;2024-02-15T11:22:13;13.77;;;5.35;;
64842;SDS011;51310;52.198;5.422;2024-02-15T11:24:50;26.08;;;6.78;;
64842;SDS011;51310;52.198;5.422;2024-02-15T11:27:27;13.40;;;5.38;;
64842;SDS011;51310;52.198;5.422;2024-02-15T11:29:57;11.48;;;5.38;;
64842;SDS011;51310;52.198;5.422;2024-02-15T11:40:16;16.35;;;5.28;;
64842;SDS011;51310;52.198;5.422;2024-02-15T11:46:13;12.50;;;6.13;;
64842;SDS011;51310;52.198;5.422;2024-02-15T11:48:46;8.70;;;5.20;;
64842;SDS011;51310;52.198;5.422;2024-02-15T11:51:24;14.65;;;6.45;;
64842;SDS011;51310;52.198;5.422;2024-02-15T11:59:12;13.63;;;6.57;;
64842;SDS011;51310;52.198;5.422;2024-02-15T12:01:53;16.30;;;6.90;;
64842;SDS011;51310;52.198;5.422;2024-02-15T12:04:40;12.55;;;6.10;;
64842;SDS011;51310;52.198;5.422;2024-02-15T12:07:26;12.90;;;6.55;;
64842;SDS011;51310;52.198;5.422;2024-02-15T12:10:18;13.70;;;6.82;;
64842;SDS011;51310;52.198;5.422;2024-02-15T12:13:03;12.95;;;7.18;;
64842;SDS011;51310;52.198;5.422;2024-02-15T12:15:57;13.43;;;6.60;;
64842;SDS011;51310;52.198;5.422;2024-02-15T12:18:45;11.80;;;5.85;;
64842;SDS011;51310;52.198;5.422;2024-02-15T12:21:17;16.93;;;7.00;;
64842;SDS011;51310;52.198;5.422;2024-02-15T12:23:51;22.00;;;6.70;;
64842;SDS011;51310;52.198;5.422;2024-02-15T12:26:21;18.23;;;6.85;;
64842;SDS011;51310;52.198;5.422;2024-02-15T12:28:52;11.80;;;7.20;;
64842;SDS011;51310;52.198;5.422;2024-02-15T12:31:23;19.13;;;7.80;;
64842;SDS011;51310;52.198;5.422;2024-02-15T12:34:02;10.40;;;6.53;;
64842;SDS011;51310;52.198;5.422;2024-02-15T12:36:33;14.55;;;6.82;;
64842;SDS011;51310;52.198;5.422;2024-02-15T12:39:03;13.68;;;6.95;;
64842;SDS011;51310;52.198;5.422;2024-02-15T12:41:39;9.23;;;5.47;;
64842;SDS011;51310;52.198;5.422;2024-02-15T12:44:15;12.75;;;6.15;;
64842;SDS011;51310;52.198;5.422;2024-02-15T12:46:42;12.15;;;6.13;;
64842;SDS011;51310;52.198;5.422;2024-02-15T12:49:12;11.60;;;5.05;;
64842;SDS011;51310;52.198;5.422;2024-02-15T12:51:51;8.85;;;5.70;;
64842;SDS011;51310;52.198;5.422;2024-02-15T12:54:39;8.95;;;5.25;;
64842;SDS011;51310;52.198;5.422;2024-02-15T12:57:07;15.15;;;5.57;;
64842;SDS011;51310;52.198;5.422;2024-02-15T12:59:35;12.45;;;5.78;;
64842;SDS011;51310;52.198;5.422;2024-02-15T13:02:02;8.07;;;5.85;;
64842;SDS011;51310;52.198;5.422;2024-02-15T13:04:29;12.35;;;5.30;;
64842;SDS011;51310;52.198;5.422;2024-02-15T13:06:55;7.40;;;4.45;;
64842;SDS011;51310;52.198;5.422;2024-02-15T13:09:20;11.48;;;5.75;;
64842;SDS011;51310;52.198;5.422;2024-02-15T13:11:48;10.65;;;5.43;;
64842;SDS011;51310;52.198;5.422;2024-02-15T13:14:15;7.97;;;4.25;;
64842;SDS011;51310;52.198;5.422;2024-02-15T13:16:41;9.13;;;4.22;;
64842;SDS011;51310;52.198;5.422;2024-02-15T13:19:09;5.90;;;4.30;;
64842;SDS011;51310;52.198;5.422;2024-02-15T13:21:35;8.80;;;4.45;;
64842;SDS011;51310;52.198;5.422;2024-02-15T13:24:01;9.48;;;3.80;;
64842;SDS011;51310;52.198;5.422;2024-02-15T13:26:30;9.02;;;3.65;;
64842;SDS011;51310;52.198;5.422;2024-02-15T13:28:57;9.07;;;4.07;;
64842;SDS011;51310;52.198;5.422;2024-02-15T13:31:23;12.10;;;3.67;;
64842;SDS011;51310;52.198;5.422;2024-02-15T13:33:49;13.95;;;3.85;;
64842;SDS011;51310;52.198;5.422;2024-02-15T13:36:15;8.82;;;2.85;;
64842;SDS011;51310;52.198;5.422;2024-02-15T13:38:41;9.10;;;3.67;;
64842;SDS011;51310;52.198;5.422;2024-02-15T13:41:07;7.97;;;3.33;;
64842;SDS011;51310;52.198;5.422;2024-02-15T13:43:34;9.93;;;2.83;;
64842;SDS011;51310;52.198;5.422;2024-02-15T13:46:00;5.75;;;3.20;;
64842;SDS011;51310;52.198;5.422;2024-02-15T13:48:30;4.40;;;2.38;;
64842;SDS011;51310;52.198;5.422;2024-02-15T13:50:56;5.40;;;2.75;;
64842;SDS011;51310;52.198;5.422;2024-02-15T13:53:23;6.50;;;2.72;;
64842;SDS011;51310;52.198;5.422;2024-02-15T13:55:50;6.57;;;2.25;;
64842;SDS011;51310;52.198;5.422;2024-02-15T13:58:17;8.18;;;2.50;;
64842;SDS011;51310;52.198;5.422;2024-02-15T14:00:43;3.33;;;1.88;;
64842;SDS011;51310;52.198;5.422;2024-02-15T14:03:10;7.00;;;2.30;;
64842;SDS011;51310;52.198;5.422;2024-02-15T14:05:36;4.22;;;2.17;;
64842;SDS011;51310;52.198;5.422;2024-02-15T14:08:04;14.38;;;2.53;;
64842;SDS011;51310;52.198;5.422;2024-02-15T14:10:33;8.38;;;2.58;;
64842;SDS011;51310;52.198;5.422;2024-02-15T14:13:01;12.93;;;2.95;;
64842;SDS011;51310;52.198;5.422;2024-02-15T14:15:36;7.72;;;3.08;;
64842;SDS011;51310;52.198;5.422;2024-02-15T14:18:10;5.28;;;2.47;;
64842;SDS011;51310;52.198;5.422;2024-02-15T14:20:43;5.22;;;2.72;;
64842;SDS011;51310;52.198;5.422;2024-02-15T14:23:14;4.10;;;1.77;;
64842;SDS011;51310;52.198;5.422;2024-02-15T14:25:41;8.40;;;2.25;;
64842;SDS011;51310;52.198;5.422;2024-02-15T14:28:09;3.90;;;2.22;;
64842;SDS011;51310;52.198;5.422;2024-02-15T14:30:35;5.75;;;2.15;;
64842;SDS011;51310;52.198;5.422;2024-02-15T14:33:23;9.63;;;3.00;;
64842;SDS011;51310;52.198;5.422;2024-02-15T14:35:49;9.25;;;2.47;;
64842;SDS011;51310;52.198;5.422;2024-02-15T14:38:18;3.97;;;2.10;;
64842;SDS011;51310;52.198;5.422;2024-02-15T14:40:46;7.72;;;3.05;;
64842;SDS011;51310;52.198;5.422;2024-02-15T14:43:23;7.32;;;3.38;;
64842;SDS011;51310;52.198;5.422;2024-02-15T14:45:51;6.35;;;3.45;;
64842;SDS011;51310;52.198;5.422;2024-02-15T14:48:18;10.10;;;2.38;;
64842;SDS011;51310;52.198;5.422;2024-02-15T14:50:45;9.00;;;2.78;;
64842;SDS011;51310;52.198;5.422;2024-02-15T14:53:12;6.75;;;2.95;;
64842;SDS011;51310;52.198;5.422;2024-02-15T14:55:40;9.52;;;2.85;;
64842;SDS011;51310;52.198;5.422;2024-02-15T14:58:11;6.25;;;3.00;;
64842;SDS011;51310;52.198;5.422;2024-02-15T15:00:38;6.15;;;2.65;;
64842;SDS011;51310;52.198;5.422;2024-02-15T15:03:07;7.95;;;3.00;;
64842;SDS011;51310;52.198;5.422;2024-02-15T15:05:33;12.55;;;2.83;;
64842;SDS011;51310;52.198;5.422;2024-02-15T15:08:17;14.05;;;3.30;;
64842;SDS011;51310;52.198;5.422;2024-02-15T15:11:02;8.45;;;2.42;;
64842;SDS011;51310;52.198;5.422;2024-02-15T15:13:46;6.78;;;2.78;;